Etusivu
METAR-TAF:

METAR-TAF

Lentoasemat :

Grand Rapids/Itasca County Airport (Gordon Newstrom Field)

Grand Rapids, Minnesota, Yhdysvallat

Leveyspiiri: 47-13N, Pituuspiiri: 093-31W, korkeus merenpinnasta: 413 m

Tämänhetkinen sää

Tämä raportti tehtiin 10 minuuttia sitten, kello 01.56 UTC
Tuuli 3 kn pohjoisen/luoteesta
Lämpötila -6°C
Kosteus 86%
Ilmanpaine 1014 hPa
Näkyvyys: 16.1 km
selkeää

METAR: KGPZ 110156Z AUTO 34003KT 10SM CLR M06/M08 A2995 RMK AO2 SLP170 T10561083 FZRANO

Aika: 20:06 (02:06 UTC)


TAF: puuttuu

Säähavainnot ja -ennusteet yli 4000 lentoasemalta (METAR- ja TAF-raportit).

Käytössä olevat sääasemat on merkitty karttaan keltaisilla ja punaisilla pisteillä.

Aseta hiiri pisteen päälle nähdäksesi sääaseman nimen.

Klikkaa sitten nähdäksesi säähavainnot ja -ennusteet.

Kartan vaihtaminen: klikkaa mustalla rastilla varustettuja vihreitä pisteitä, niin voit zoomata sisään; viivalla varustettua vihreää pistettä, niin voit zoomata ulos tai vihreitä nuolia, niin pääset viereisille kartoille.


METAR-TAF: